Monday, June 25, 2018, 9:39 AM EDT
Back to Local

KCQX, Chatham Municipal Airport

Location: Chatham, MA, United States Lat: 41.683
Local Time: 9:39 AM EDT (13:39 GMT) Lon: -70
Time Zone: US/Eastern Elev: 68 ft

Show me the last for .
Show Decoded

2018-06-25 09:21 METAR KCQX 251321Z AUTO VRB05KT 10SM OVC010 19/17 A2984 RMK AO2 CIG 007V012
                 T01890167 TSNO =
2018-06-25 08:52 METAR KCQX 251252Z AUTO VRB06KT 10SM OVC007 18/17 A2982 RMK AO2 CIG 006V010
                 SLP100 T01830167 TSNO =
2018-06-25 07:52 METAR KCQX 251152Z AUTO 36007KT 320V030 10SM OVC008 18/17 A2981 RMK AO2 CIG
                 006V012 SLP094 70005 T01780167 10194 20178 52020 TSNO =
2018-06-25 06:52 METAR KCQX 251052Z AUTO 01005KT 10SM OVC006 18/17 A2979 RMK AO2 CIG 003V010
                 SLP088 T01780167 TSNO =
2018-06-25 06:43 METAR KCQX 251043Z AUTO VRB05KT 3SM BR OVC006 18/17 A2979 RMK AO2 CIG 003V009
                 T01780167 TSNO =
2018-06-25 06:34 METAR KCQX 251034Z AUTO VRB05KT 2SM BR OVC004 18/17 A2978 RMK AO2 T01780167 TSNO
                 =
2018-06-25 06:22 METAR KCQX 251022Z AUTO 34006KT 1 1/2SM BR OVC002 18/17 A2977 RMK AO2 T01780172
                 TSNO =
2018-06-25 06:10 METAR KCQX 251010Z AUTO VRB05KT 3/4SM BR OVC002 18/17 A2977 RMK AO2 T01780172
                 TSNO =
2018-06-25 05:52 METAR KCQX 250952Z AUTO VRB06KT 1 1/2SM BR OVC002 18/18 A2977 RMK AO2 CIG
                 002V005 SLP081 T01830178 TSNO =
2018-06-25 05:47 METAR KCQX 250947Z AUTO 31006KT 1 3/4SM BR BKN004 OVC007 19/18 A2976 RMK AO2 CIG
                 002V005 TSNO =
2018-06-25 05:36 METAR KCQX 250936Z AUTO VRB05KT 9SM OVC005 19/18 A2976 RMK AO2 CIG 003V008
                 T01940183 TSNO =
2018-06-25 04:52 METAR KCQX 250852Z AUTO VRB03KT 7SM OVC003 19/18 A2975 RMK AO2 SLP074 T01890183
                 51003 TSNO =
2018-06-25 04:01 METAR KCQX 250801Z AUTO 25003KT 4SM BR OVC002 19/18 A2974 RMK AO2 T01890178 TSNO
                 =
2018-06-25 03:52 METAR KCQX 250752Z AUTO 00000KT 2 1/2SM BR OVC002 19/18 A2974 RMK AO2 SLP073
                 T01890183 TSNO =
2018-06-25 03:48 METAR KCQX 250748Z AUTO 24003KT 2SM BR OVC002 18/18 A2974 RMK AO2 TSNO =
2018-06-25 03:22 METAR KCQX 250722Z AUTO 24004KT 1 1/4SM BR OVC002 18/18 A2974 RMK AO2 T01830183
                 TSNO =
2018-06-25 03:15 METAR KCQX 250715Z AUTO VRB04KT 3/4SM BR VV002 18/18 A2974 RMK AO2 T01830178
                 TSNO =
2018-06-25 03:00 METAR KCQX 250700Z AUTO 23003KT 1 1/4SM BR OVC002 18/18 A2973 RMK AO2 T01830178
                 TSNO =
2018-06-25 02:52 METAR KCQX 250652Z AUTO VRB04KT 2SM BR OVC002 18/18 A2974 RMK AO2 SLP071
                 T01830178 TSNO =
2018-06-25 02:17 METAR KCQX 250617Z AUTO VRB04KT 1 1/2SM BR OVC002 18/18 A2975 RMK AO2 T01830178
                 TSNO =
2018-06-25 02:06 METAR KCQX 250606Z AUTO 22007KT 2SM BR OVC002 18/18 A2975 RMK AO2 T01830178 TSNO
                 =
2018-06-25 01:52 METAR KCQX 250552Z AUTO 23006KT 4SM BR OVC002 18/18 A2975 RMK AO2 RAB32E51
                 SLP076 P0000 60005 T01830178 10183 20172 58020 TSNO =
2018-06-25 01:31 METAR KCQX 250531Z AUTO 22008KT 8SM BKN003 OVC008 18/18 A2977 RMK AO2 T01830178
                 TSNO =
2018-06-25 01:10 METAR KCQX 250510Z AUTO 23006KT 8SM OVC009 18/18 A2977 RMK AO2 CIG 008V012
                 T01830178 TSNO =
2018-06-25 00:52 METAR KCQX 250452Z AUTO 22005KT 6SM BR SCT002 OVC010 17/17 A2978 RMK AO2 RAE46
                 SLP086 P0001 T01720167 402060150 TSNO =
2018-06-25 00:41 METAR KCQX 250441Z AUTO 00000KT 4SM -RA BR BKN002 OVC012 17/17 A2978 RMK AO2
                 P0001 T01720167 TSNO =
2018-06-25 00:31 METAR KCQX 250431Z AUTO VRB04KT 2 1/2SM -RA BR OVC002 17/17 A2977 RMK AO2 P0000
                 T01720167 TSNO =
2018-06-25 00:05 METAR KCQX 250405Z AUTO VRB04KT 1 3/4SM -RA BR OVC002 17/17 A2979 RMK AO2 P0000
                 T01720172 TSNO =
2018-06-24 23:52 METAR KCQX 250352Z AUTO 20004KT 3SM -RA BR OVC002 18/17 A2980 RMK AO2 SLP090
                 P0003 T01780172 TSNO =
2018-06-24 23:16 METAR KCQX 250316Z AUTO 21006KT 1 3/4SM -RA BR OVC002 18/18 A2981 RMK AO2 P0001
                 T01780178 TSNO =
2018-06-24 23:10 METAR KCQX 250310Z AUTO 22006KT 3SM -RA BR OVC002 18/18 A2982 RMK AO2 P0001
                 T01780178 TSNO =
2018-06-24 22:52 METAR KCQX 250252Z AUTO 22007KT 1 3/4SM RA BR OVC002 18/17 A2981 RMK AO2 RAB39
                 SLP096 P0001 60001 T01780172 55005 TSNO =
2018-06-24 22:47 METAR KCQX 250247Z AUTO 20008KT 2 1/2SM -RA BR OVC002 18/17 A2981 RMK AO2 RAB39
                 P0000 TSNO =
2018-06-24 22:31 METAR KCQX 250231Z AUTO 21007KT 1SM BR VV002 18/18 A2981 RMK AO2 T01780178 TSNO
                 =
2018-06-24 22:01 METAR KCQX 250201Z AUTO 21005KT 3/4SM BR VV002 18/18 A2982 RMK AO2 T01780178
                 TSNO =
2018-06-24 21:52 METAR KCQX 250152Z AUTO 21006KT 1SM BR VV002 18/18 A2983 RMK AO2 RAB24E43 SLP101
                 P0000 T01780178 TSNO =
2018-06-24 21:43 METAR KCQX 250143Z AUTO 21006KT 2 1/2SM BR OVC002 18/18 A2983 RMK AO2 RAB24E43
                 P0000 T01780178 TSNO =
2018-06-24 21:26 METAR KCQX 250126Z AUTO 22005KT 3SM -RA BR OVC002 18/18 A2983 RMK AO2 RAB24
                 P0000 T01780178 TSNO =
2018-06-24 21:16 METAR KCQX 250116Z AUTO 22007KT 1 1/4SM BR OVC002 18/18 A2983 RMK AO2 T01780178
                 TSNO =
2018-06-24 21:03 METAR KCQX 250103Z AUTO 22006KT 3/4SM BR VV002 18/17 A2983 RMK AO2 T01780172
                 TSNO =
2018-06-24 20:52 METAR KCQX 250052Z AUTO 20007KT 1SM BR VV002 18/17 A2983 RMK AO2 SLP101
                 T01780172 TSNO =
2018-06-24 20:26 METAR KCQX 250026Z AUTO 21006KT 1/2SM FG VV002 18/17 A2984 RMK AO2 T01780172
                 TSNO =
2018-06-24 19:59 METAR KCQX 242359Z AUTO 21007KT 1/4SM FG VV002 18/17 A2983 RMK AO2 T01780172
                 TSNO =
2018-06-24 19:52 METAR KCQX 242352Z AUTO 21006KT 1/2SM FG VV002 18/17 A2984 RMK AO2 SLP104
                 T01830172 10206 20183 51005 TSNO =
2018-06-24 19:40 METAR KCQX 242340Z AUTO 21005KT 1 3/4SM BR OVC002 18/17 A2983 RMK AO2 T01830172
                 TSNO =
2018-06-24 18:52 METAR KCQX 242252Z AUTO 22005KT 3SM BR OVC002 18/17 A2984 RMK AO2 SLP105
                 T01830172 TSNO =
2018-06-24 18:39 METAR KCQX 242239Z AUTO 23005KT 3SM BR OVC002 18/17 A2984 RMK AO2 T01830172 TSNO
                 =
2018-06-24 18:31 METAR KCQX 242231Z AUTO VRB04KT 2 1/2SM BR OVC002 18/17 A2983 RMK AO2 VIS 1
                 3/4V3 T01830172 TSNO =
2018-06-24 17:52 METAR KCQX 242152Z AUTO 21008KT 170V230 10SM OVC004 19/17 A2982 RMK AO2 SLP099
                 T01890172 TSNO =
2018-06-24 16:52 METAR KCQX 242052Z AUTO 21006KT 10SM OVC005 20/17 A2984 RMK AO2 SLP104 T02000172
                 57002 TSNO =
2018-06-24 16:49 METAR KCQX 242049Z AUTO 21006KT 10SM BKN005 OVC013 19/17 A2984 RMK AO2 TSNO =
2018-06-24 16:38 METAR KCQX 242038Z AUTO 23006KT 10SM BKN006 BKN013 OVC019 19/17 A2984 RMK AO2
                 T01940172 TSNO =
2018-06-24 16:27 METAR KCQX 242027Z AUTO 22010G15KT 10SM SCT006 OVC013 19/17 A2984 RMK AO2
                 T01940172 TSNO =
2018-06-24 16:03 METAR KCQX 242003Z AUTO 22007KT 10SM OVC009 20/17 A2984 RMK AO2 CIG 004V012
                 T02000172 TSNO =
2018-06-24 15:52 METAR KCQX 241952Z AUTO 23006KT 10SM BKN005 OVC011 21/17 A2984 RMK AO2 CIG
                 004V008 SLP105 T02060172 TSNO =
2018-06-24 15:16 METAR KCQX 241916Z AUTO 21006G16KT 10SM BKN005 OVC013 19/17 A2985 RMK AO2
                 T01890167 TSNO =
2018-06-24 14:52 METAR KCQX 241852Z AUTO 22007KT 10SM BKN007 OVC012 21/18 A2984 RMK AO2 SLP106
                 T02060178 TSNO =
2018-06-24 14:20 METAR KCQX 241820Z AUTO 22006KT 10SM OVC006 20/17 A2984 RMK AO2 T02000172 TSNO =
2018-06-24 13:52 METAR KCQX 241752Z AUTO 10SM OVC005 19/17 A2985 RMK AO2 SLP108 T01940172 10206
                 20167 58003 TSNO =
2018-06-24 13:30 METAR KCQX 241730Z AUTO 21007KT 10SM OVC005 19/17 A2985 RMK AO2 CIG 004V010
                 T01940172 TSNO =
2018-06-24 12:52 METAR KCQX 241652Z AUTO VRB05KT 10SM OVC007 19/17 A2985 RMK AO2 CIG 005V010
                 SLP111 T01940172 TSNO =
2018-06-24 11:52 METAR KCQX 241552Z AUTO 22006KT 10SM SCT003 OVC009 20/17 A2986 RMK AO2 SLP111
                 T02000172 TSNO =
2018-06-24 11:17 METAR KCQX 241517Z AUTO 21004KT 10SM OVC004 18/16 A2987 RMK AO2 CIG 003V008
                 T01780161 TSNO =
2018-06-24 10:52 METAR KCQX 241452Z AUTO 21005KT 10SM OVC006 19/17 A2985 RMK AO2 SLP111 T01890167
                 50004 TSNO =
2018-06-24 09:52 METAR KCQX 241352Z AUTO 21006KT 10SM OVC006 18/16 A2986 RMK AO2 SLP111 T01780161
                 TSNO =
2018-06-24 09:42 METAR KCQX 241342Z AUTO 22005KT 10SM OVC005 18/16 A2985 RMK AO2 T01780161 TSNO =

Support USWX by starting your Amazon purchase here.